Airfield :
LOGIN :

Register | Disclaimer

   EN    FR    IT 

 










Legend :    VFR   Marginal VFR   IFR   Intensive IFR   Very Intensive IFR
Visi :
Ceiling :
>= 8 km
>= 3000ft
5 to 8 km
1000 to 3000 ft
1500m to 5 km
500 to 1000 ft
800 to 1500m
200 to 500 ft
< 800m
< 200 ft
Symbols :   Thunderstorms  Fog  Heavy snow  Heavy precipitations  Wind > 20 kt
SIGMETs :     Misc.  Thunderstorms  Icing  Turbulence  Mountain Waves  Volcanic Ashes







- Airport Elevation : 302 ft
- IATA code : CGN


EDDK - Cologne Bonn

CURRENT METAR :
  • 270350Z 01007KT CAVOK 16/13 Q1026 NOSIG

EXPIRED METARs :
  • 270320Z 36006KT CAVOK 16/13 Q1026 NOSIG
  • 270250Z 01006KT CAVOK 17/13 Q1026 NOSIG
  • 270220Z 01005KT CAVOK 18/14 Q1026 NOSIG
  • 270150Z 04004KT 360V070 CAVOK 19/14 Q1026 NOSIG
  • 270120Z 02004KT CAVOK 20/14 Q1026 NOSIG

TAF TAF EDDK
Valid from the 27 at 00:00 until the 28 at 06:00 UTC


262300Z 2700/2806 35006KT CAVOK
BECMG 2710/2712 35011KT
BECMG 2717/2720 01005KT
No reported NOTAMs for that airfield.



MET'MAP, your aeronautical weather chart ! - Copyright ORBIFLY December 2007 - Disclaimer

ORBIFLY MET'MAP TEAM :

Programming & Development : Alexandra Zaïnal
Concept & Development : Baudouin d'Aumeries
Co-Development & Prog : Marc-Olivier Méhu
Technical & hardware support : Manuel Goepfert

Contact : metmap@orbifly.com




SOURCES & CREDITS :

   NOAA